Time;durP1;ratioP1;P1;durP2;ratioP2;P2;SDS_P1;SDS_P2;PMS_P1;PMS_P2;Temp;Humidity;BMP_temperature;BMP_pressure;BME280_temperature;BME280_humidity;BME280_pressure;Samples;Min_cycle;Max_cycle;Signal;HPM_P1;HPM_P2
2022/09/22 00:00:57;;;;;;;;;;;18.80;99.90;;;;;;5053917;28;19925;-74
2022/09/22 00:03:24;;;;;;;;;;;18.80;99.90;;;;;;5072108;28;19917;-73
2022/09/22 00:05:59;;;;;;;;;;;18.70;99.90;;;;;;5058822;28;19920;-71
2022/09/22 00:08:27;;;;;;;;;;;18.50;99.90;;;;;;5053178;28;19909;-72
2022/09/22 00:11:01;;;;;;;;;;;18.30;99.90;;;;;;5052886;28;19912;-72
2022/09/22 00:13:30;;;;;;;;;;;18.10;99.90;;;;;;5053123;28;20012;-73
2022/09/22 00:15:59;;;;;;;;;;;18.00;99.90;;;;;;5067273;28;20608;-73
2022/09/22 00:18:27;;;;;;;;;;;17.90;99.90;;;;;;5070653;28;19945;-72
2022/09/22 00:20:56;;;;;;;;;;;18.00;99.90;;;;;;5062569;28;19921;-72
2022/09/22 00:23:25;;;;;;;;;;;18.10;99.90;;;;;;5035282;28;19908;-72
2022/09/22 00:25:52;;;;;;;;;;;18.20;99.90;;;;;;5053169;28;19965;-72
2022/09/22 00:28:19;;;;;;;;;;;18.40;99.90;;;;;;5053075;28;19909;-72
2022/09/22 00:30:47;;;;;;;;;;;18.50;99.90;;;;;;5035121;28;19960;-74
2022/09/22 00:33:17;;;;;;;;;;;18.80;99.90;;;;;;5064906;28;19909;-73
2022/09/22 00:35:45;;;;;;;;;;;19.00;99.90;;;;;;5064562;28;19919;-72
2022/09/22 00:38:12;;;;;;;;;;;19.20;99.90;;;;;;5072469;28;19940;-72
2022/09/22 00:40:39;;;;;;;;;;;19.30;99.90;;;;;;5068102;28;20621;-75
2022/09/22 00:43:17;;;;;;;;;;;19.50;99.90;;;;;;5039621;28;19909;-71
2022/09/22 00:45:47;;;;;;;;;;;19.80;99.90;;;;;;5054644;28;20395;-72
2022/09/22 00:48:14;;;;;;;;;;;19.90;99.90;;;;;;5052057;28;19913;-73
2022/09/22 00:50:40;;;;;;;;;;;19.90;99.90;;;;;;5051668;28;19908;-71
2022/09/22 00:53:10;;;;;;;;;;;19.90;99.90;;;;;;5034059;28;19924;-70
2022/09/22 00:55:36;;;;;;;;;;;19.90;99.90;;;;;;5051977;28;19913;-72
2022/09/22 00:58:05;;;;;;;;;;;19.80;99.90;;;;;;5052940;28;19913;-73
2022/09/22 01:00:32;;;;;;;;;;;19.90;99.90;;;;;;5051764;28;19943;-71
2022/09/22 01:03:00;;;;;;;;;;;19.80;99.90;;;;;;5051843;28;20288;-69
2022/09/22 01:05:28;;;;;;;;;;;19.70;99.90;;;;;;5051959;28;20351;-71
2022/09/22 01:07:55;;;;;;;;;;;19.70;99.90;;;;;;5056082;28;20697;-72
2022/09/22 01:10:22;;;;;;;;;;;19.80;99.90;;;;;;5069295;28;20047;-72
2022/09/22 01:13:01;;;;;;;;;;;19.80;99.90;;;;;;5051748;28;20257;-70
2022/09/22 01:15:40;;;;;;;;;;;19.60;99.90;;;;;;5050330;28;19919;-72
2022/09/22 01:18:16;;;;;;;;;;;19.50;99.90;;;;;;5050393;28;19909;-71
2022/09/22 01:20:42;;;;;;;;;;;19.50;99.90;;;;;;5051055;28;19927;-71
2022/09/22 01:23:23;;;;;;;;;;;19.40;99.90;;;;;;5070462;28;19987;-72
2022/09/22 01:26:07;;;;;;;;;;;19.20;99.90;;;;;;5070114;28;19938;-73
2022/09/22 01:28:40;;;;;;;;;;;19.20;99.90;;;;;;5070811;28;19912;-71
2022/09/22 01:31:10;;;;;;;;;;;19.20;99.90;;;;;;5066489;28;19909;-72
2022/09/22 01:33:53;;;;;;;;;;;19.30;99.90;;;;;;5033899;28;20007;-71
2022/09/22 01:36:23;;;;;;;;;;;19.20;99.90;;;;;;5049317;28;20377;-72
2022/09/22 01:39:05;;;;;;;;;;;19.20;99.90;;;;;;5049356;28;19913;-72
2022/09/22 01:41:43;;;;;;;;;;;19.10;99.90;;;;;;5049362;28;19924;-72
2022/09/22 01:44:24;;;;;;;;;;;19.00;99.90;;;;;;5053314;28;19920;-72
2022/09/22 01:47:11;;;;;;;;;;;18.90;99.90;;;;;;5050573;28;19999;-72
2022/09/22 01:49:39;;;;;;;;;;;18.90;99.90;;;;;;5037000;28;20066;-72
2022/09/22 01:52:13;;;;;;;;;;;18.90;99.90;;;;;;5051422;28;19970;-72
2022/09/22 01:54:44;;;;;;;;;;;18.90;99.90;;;;;;5069708;28;20007;-73
2022/09/22 01:57:16;;;;;;;;;;;18.90;99.90;;;;;;5071678;28;19931;-73
2022/09/22 01:59:46;;;;;;;;;;;19.00;99.90;;;;;;5071340;28;19916;-73
2022/09/22 02:02:36;;;;;;;;;;;19.00;99.90;;;;;;5069135;28;19927;-71
2022/09/22 02:05:05;;;;;;;;;;;18.90;99.90;;;;;;5058297;28;19921;-71
2022/09/22 02:07:33;;;;;;;;;;;18.90;99.90;;;;;;5071262;28;19909;-70
2022/09/22 02:10:01;;;;;;;;;;;18.90;99.90;;;;;;5052985;28;19946;-72
2022/09/22 02:12:28;;;;;;;;;;;19.00;99.90;;;;;;5055105;28;19913;-72
2022/09/22 02:14:56;;;;;;;;;;;19.00;99.90;;;;;;5050767;28;19963;-72
2022/09/22 02:17:22;;;;;;;;;;;19.10;99.90;;;;;;5051110;28;19967;-73
2022/09/22 02:19:51;;;;;;;;;;;19.00;99.90;;;;;;5050685;28;19920;-72
2022/09/22 02:22:17;;;;;;;;;;;19.10;99.90;;;;;;5067413;28;19912;-72
2022/09/22 02:24:45;;;;;;;;;;;19.10;99.90;;;;;;5074691;28;19912;-73
2022/09/22 02:27:35;;;;;;;;;;;19.20;99.90;;;;;;5036716;28;19916;-72
2022/09/22 02:30:07;;;;;;;;;;;19.20;99.90;;;;;;5055160;28;19909;-73
2022/09/22 02:32:35;;;;;;;;;;;19.20;99.90;;;;;;5070291;28;19915;-72
2022/09/22 02:35:01;;;;;;;;;;;19.10;99.90;;;;;;5074625;28;19957;-72
2022/09/22 02:37:37;;;;;;;;;;;19.20;99.90;;;;;;5056220;28;19916;-72
2022/09/22 02:40:07;;;;;;;;;;;19.20;99.90;;;;;;5075095;28;19986;-72
2022/09/22 02:43:12;;;;;;;;;;;19.20;99.90;;;;;;5058403;28;20320;-74
2022/09/22 02:45:44;;;;;;;;;;;19.20;99.90;;;;;;4982769;28;19914;-73
2022/09/22 02:48:14;;;;;;;;;;;19.10;99.90;;;;;;4993498;28;19972;-73
2022/09/22 02:50:41;;;;;;;;;;;19.00;99.90;;;;;;5026629;28;19909;-72
2022/09/22 02:53:13;;;;;;;;;;;19.10;99.90;;;;;;5056056;28;20366;-72
2022/09/22 02:55:40;;;;;;;;;;;19.10;99.90;;;;;;5042905;28;19956;-72
2022/09/22 02:58:07;;;;;;;;;;;19.10;99.90;;;;;;5058510;28;20002;-71
2022/09/22 03:00:34;;;;;;;;;;;19.10;99.90;;;;;;5073832;28;19921;-73
2022/09/22 03:03:00;;;;;;;;;;;19.20;99.90;;;;;;5063514;28;19999;-72
2022/09/22 03:05:27;;;;;;;;;;;19.30;99.90;;;;;;5074121;28;19932;-72
2022/09/22 03:07:54;;;;;;;;;;;19.30;99.90;;;;;;5055810;28;19978;-72
2022/09/22 03:10:21;;;;;;;;;;;19.30;99.90;;;;;;5072752;28;20003;-74
2022/09/22 03:12:47;;;;;;;;;;;19.30;99.90;;;;;;5071802;28;19920;-73
2022/09/22 03:15:14;;;;;;;;;;;19.30;99.90;;;;;;5061922;28;19913;-75
2022/09/22 03:17:41;;;;;;;;;;;19.30;99.90;;;;;;5052094;28;19936;-74
2022/09/22 03:20:10;;;;;;;;;;;19.40;99.90;;;;;;5052442;28;19923;-73
2022/09/22 03:22:38;;;;;;;;;;;19.50;99.90;;;;;;5047593;28;20341;-73
2022/09/22 03:25:05;;;;;;;;;;;19.60;99.90;;;;;;5053961;28;19912;-73
2022/09/22 03:27:32;;;;;;;;;;;19.70;99.90;;;;;;5053855;28;19909;-72
2022/09/22 03:29:59;;;;;;;;;;;19.70;99.90;;;;;;5062938;28;19943;-73
2022/09/22 03:32:25;;;;;;;;;;;19.70;99.90;;;;;;5034747;28;19967;-73
2022/09/22 03:34:52;;;;;;;;;;;19.80;99.90;;;;;;5059459;28;19957;-73
2022/09/22 03:37:19;;;;;;;;;;;19.70;99.90;;;;;;5073202;28;19963;-71
2022/09/22 03:39:45;;;;;;;;;;;19.60;99.90;;;;;;5073911;28;20430;-74
2022/09/22 03:42:15;;;;;;;;;;;19.50;99.90;;;;;;5060744;28;20361;-74
2022/09/22 03:44:41;;;;;;;;;;;19.30;99.90;;;;;;5053300;28;19966;-74
2022/09/22 03:47:08;;;;;;;;;;;19.30;99.90;;;;;;5053535;28;19913;-74
2022/09/22 03:49:35;;;;;;;;;;;19.30;99.90;;;;;;5053867;28;19916;-73
2022/09/22 03:52:02;;;;;;;;;;;19.30;99.90;;;;;;5053149;28;19962;-73
2022/09/22 03:54:29;;;;;;;;;;;19.30;99.90;;;;;;5055034;28;19915;-74
2022/09/22 03:56:56;;;;;;;;;;;19.30;99.90;;;;;;5073285;28;19916;-73
2022/09/22 03:59:22;;;;;;;;;;;19.20;99.90;;;;;;5055545;28;20397;-71
2022/09/22 04:01:49;;;;;;;;;;;19.10;99.90;;;;;;5053383;28;19939;-75
2022/09/22 04:04:16;;;;;;;;;;;19.10;99.90;;;;;;5053088;28;20297;-74
2022/09/22 04:06:42;;;;;;;;;;;19.10;99.90;;;;;;5052801;28;19916;-74
2022/09/22 04:09:09;;;;;;;;;;;19.00;99.90;;;;;;5054170;28;19924;-74
2022/09/22 04:11:36;;;;;;;;;;;19.00;99.90;;;;;;5052827;28;20353;-75
2022/09/22 04:14:03;;;;;;;;;;;18.90;99.90;;;;;;5053682;28;19936;-73
2022/09/22 04:16:30;;;;;;;;;;;18.90;99.90;;;;;;5052458;28;19913;-74
2022/09/22 04:18:57;;;;;;;;;;;19.00;99.90;;;;;;5052988;28;19913;-75
2022/09/22 04:21:24;;;;;;;;;;;18.90;99.90;;;;;;5052829;28;20028;-73
2022/09/22 04:23:50;;;;;;;;;;;18.80;99.90;;;;;;5053032;28;19971;-74
2022/09/22 04:26:17;;;;;;;;;;;18.80;99.90;;;;;;5052380;28;19913;-72
2022/09/22 04:28:44;;;;;;;;;;;18.80;99.90;;;;;;5042325;28;20250;-73
2022/09/22 04:31:10;;;;;;;;;;;18.90;99.90;;;;;;5052729;28;19909;-74
2022/09/22 04:33:37;;;;;;;;;;;19.00;99.90;;;;;;5035094;28;20376;-72
2022/09/22 04:36:04;;;;;;;;;;;19.00;99.90;;;;;;5072169;28;20011;-73
2022/09/22 04:38:31;;;;;;;;;;;19.00;99.90;;;;;;5072331;28;19916;-73
2022/09/22 04:40:57;;;;;;;;;;;19.00;99.90;;;;;;5065270;28;19921;-75
2022/09/22 04:43:24;;;;;;;;;;;19.00;99.90;;;;;;5051844;28;19909;-74
2022/09/22 04:45:51;;;;;;;;;;;18.90;99.90;;;;;;5051508;28;19940;-72
2022/09/22 04:48:17;;;;;;;;;;;18.90;99.90;;;;;;5036650;28;20023;-72
2022/09/22 04:50:44;;;;;;;;;;;18.80;99.90;;;;;;5069476;28;20393;-73
2022/09/22 04:53:11;;;;;;;;;;;18.80;99.90;;;;;;5052388;28;19912;-72
2022/09/22 04:55:38;;;;;;;;;;;18.70;99.90;;;;;;5053379;28;19967;-73
2022/09/22 04:58:06;;;;;;;;;;;18.70;99.90;;;;;;5052075;28;19990;-74
2022/09/22 05:00:33;;;;;;;;;;;18.70;99.90;;;;;;5051832;28;19917;-73
2022/09/22 05:03:02;;;;;;;;;;;18.60;99.90;;;;;;5050422;28;19916;-72
2022/09/22 05:05:28;;;;;;;;;;;18.60;99.90;;;;;;5051255;28;19921;-74
2022/09/22 05:07:59;;;;;;;;;;;18.70;99.90;;;;;;5033711;28;20201;-73
2022/09/22 05:10:29;;;;;;;;;;;18.80;99.90;;;;;;5051507;28;20007;-73
2022/09/22 05:12:59;;;;;;;;;;;19.10;99.90;;;;;;5051702;28;19916;-73
2022/09/22 05:15:26;;;;;;;;;;;19.30;99.90;;;;;;5051884;28;19920;-74
2022/09/22 05:17:56;;;;;;;;;;;19.40;99.90;;;;;;5039935;28;20506;-73
2022/09/22 05:20:23;;;;;;;;;;;19.50;99.90;;;;;;5071698;28;20369;-73
2022/09/22 05:22:49;;;;;;;;;;;19.50;99.90;;;;;;5053315;28;19921;-72
2022/09/22 05:25:18;;;;;;;;;;;19.40;99.90;;;;;;5051836;28;19909;-73
2022/09/22 05:27:49;;;;;;;;;;;19.50;99.90;;;;;;5051887;28;19920;-74
2022/09/22 05:30:16;;;;;;;;;;;19.50;99.90;;;;;;5051404;28;19919;-72
2022/09/22 05:32:43;;;;;;;;;;;19.30;99.90;;;;;;5046807;28;20318;-72
2022/09/22 05:35:11;;;;;;;;;;;19.30;99.90;;;;;;5051422;28;19960;-73
2022/09/22 05:37:38;;;;;;;;;;;19.20;99.90;;;;;;5051641;28;20378;-73
2022/09/22 05:40:05;;;;;;;;;;;19.20;99.90;;;;;;5051356;28;19916;-73
2022/09/22 05:42:33;;;;;;;;;;;19.00;99.90;;;;;;5050738;28;19909;-72
2022/09/22 05:44:59;;;;;;;;;;;18.90;99.90;;;;;;5032809;28;19917;-74
2022/09/22 05:47:26;;;;;;;;;;;18.90;99.90;;;;;;5036528;28;20389;-76
2022/09/22 05:49:53;;;;;;;;;;;18.80;99.90;;;;;;5070172;28;19970;-74
2022/09/22 05:52:20;;;;;;;;;;;18.70;99.90;;;;;;5060602;28;19920;-73
2022/09/22 05:54:46;;;;;;;;;;;18.80;99.90;;;;;;5061478;28;19916;-73
2022/09/22 05:57:14;;;;;;;;;;;18.80;99.90;;;;;;5057416;28;19919;-74
2022/09/22 05:59:40;;;;;;;;;;;18.80;99.90;;;;;;5067409;28;19920;-72
2022/09/22 06:02:10;;;;;;;;;;;18.70;99.90;;;;;;5051060;28;20280;-73
2022/09/22 06:04:36;;;;;;;;;;;18.60;99.90;;;;;;5050448;28;19920;-73
2022/09/22 06:07:04;;;;;;;;;;;18.60;99.90;;;;;;5051092;28;20317;-73
2022/09/22 06:09:31;;;;;;;;;;;18.50;99.90;;;;;;5051500;28;19916;-73
2022/09/22 06:11:57;;;;;;;;;;;18.40;99.90;;;;;;5057878;28;19919;-72
2022/09/22 06:14:24;;;;;;;;;;;18.30;99.90;;;;;;5051584;28;19932;-74
2022/09/22 06:16:51;;;;;;;;;;;18.30;99.90;;;;;;5050921;28;19943;-73
2022/09/22 06:19:17;;;;;;;;;;;18.30;99.90;;;;;;5050464;28;19909;-73
2022/09/22 06:21:44;;;;;;;;;;;18.30;99.90;;;;;;5049749;28;19916;-73
2022/09/22 06:24:11;;;;;;;;;;;18.20;99.90;;;;;;5050577;28;20011;-73
2022/09/22 06:26:38;;;;;;;;;;;18.30;99.90;;;;;;5049828;28;19909;-74
2022/09/22 06:29:05;;;;;;;;;;;18.20;99.90;;;;;;5050473;28;19999;-74
2022/09/22 06:31:31;;;;;;;;;;;18.20;99.90;;;;;;5050376;28;20289;-74
2022/09/22 06:33:58;;;;;;;;;;;18.30;99.90;;;;;;5050654;28;19909;-73
2022/09/22 06:36:31;;;;;;;;;;;18.10;99.90;;;;;;5053885;28;19919;-73
2022/09/22 06:38:58;;;;;;;;;;;18.10;99.90;;;;;;5071212;28;19947;-74
2022/09/22 06:41:26;;;;;;;;;;;18.10;99.90;;;;;;5046477;28;20028;-75
2022/09/22 06:43:54;;;;;;;;;;;18.20;99.90;;;;;;5050538;28;19917;-74
2022/09/22 06:46:23;;;;;;;;;;;18.20;99.90;;;;;;5050780;28;19916;-71
2022/09/22 06:48:50;;;;;;;;;;;18.20;99.90;;;;;;5068850;28;19927;-73
2022/09/22 06:51:17;;;;;;;;;;;18.30;99.90;;;;;;5065118;28;19909;-72
2022/09/22 06:53:44;;;;;;;;;;;18.30;99.90;;;;;;5032614;28;19909;-71
2022/09/22 06:56:10;;;;;;;;;;;18.20;99.90;;;;;;5050468;28;20363;-73
2022/09/22 06:58:37;;;;;;;;;;;18.10;99.90;;;;;;5050109;28;19909;-73
2022/09/22 07:01:05;;;;;;;;;;;18.10;99.90;;;;;;5050262;28;20007;-72
2022/09/22 07:03:32;;;;;;;;;;;18.00;99.90;;;;;;5050813;28;19921;-72
2022/09/22 07:06:02;;;;;;;;;;;18.00;99.90;;;;;;5045318;28;19913;-73
2022/09/22 07:08:30;;;;;;;;;;;17.90;99.90;;;;;;5053830;28;19939;-73
2022/09/22 07:10:59;;;;;;;;;;;17.90;99.90;;;;;;5054081;28;20577;-74
2022/09/22 07:13:28;;;;;;;;;;;17.90;99.90;;;;;;5054660;28;19924;-73
2022/09/22 07:16:02;;;;;;;;;;;17.80;99.90;;;;;;5054254;28;20403;-73
2022/09/22 07:18:29;;;;;;;;;;;17.80;99.90;;;;;;5053725;28;19913;-71
2022/09/22 07:21:09;;;;;;;;;;;17.80;99.90;;;;;;5054653;28;19924;-72
2022/09/22 07:23:35;;;;;;;;;;;17.70;99.90;;;;;;5054125;28;20357;-72
2022/09/22 07:26:03;;;;;;;;;;;17.80;99.90;;;;;;5053979;28;19995;-72
2022/09/22 07:28:31;;;;;;;;;;;17.80;99.90;;;;;;5036008;28;19909;-71
2022/09/22 07:31:08;;;;;;;;;;;17.70;99.90;;;;;;5054610;28;19936;-71
2022/09/22 07:33:35;;;;;;;;;;;17.80;99.90;;;;;;5058316;28;20387;-70
2022/09/22 07:36:07;;;;;;;;;;;17.70;99.90;;;;;;5073670;28;19955;-73
2022/09/22 07:38:38;;;;;;;;;;;17.80;99.90;;;;;;5073608;28;19999;-75
2022/09/22 07:41:06;;;;;;;;;;;17.70;99.90;;;;;;5069714;28;19929;-73
2022/09/22 07:43:32;;;;;;;;;;;17.70;99.90;;;;;;5053544;28;19909;-72
2022/09/22 07:45:59;;;;;;;;;;;17.70;99.90;;;;;;5053749;28;20001;-71
2022/09/22 07:48:36;;;;;;;;;;;17.80;99.90;;;;;;5062046;28;19923;-74
2022/09/22 07:51:11;;;;;;;;;;;17.80;99.90;;;;;;5069909;28;19913;-72
2022/09/22 07:53:39;;;;;;;;;;;17.70;99.90;;;;;;5053069;28;20340;-74
2022/09/22 07:56:11;;;;;;;;;;;17.70;99.90;;;;;;5052791;28;19909;-75
2022/09/22 07:58:40;;;;;;;;;;;17.60;99.90;;;;;;5052956;28;20277;-73
2022/09/22 08:01:10;;;;;;;;;;;17.50;99.90;;;;;;5057412;28;19935;-74
2022/09/22 08:03:36;;;;;;;;;;;17.40;99.90;;;;;;5055764;28;20035;-73
2022/09/22 08:06:09;;;;;;;;;;;17.30;99.90;;;;;;5045574;28;20326;-73
2022/09/22 08:08:40;;;;;;;;;;;17.30;99.90;;;;;;5035647;28;19915;-73
2022/09/22 08:11:14;;;;;;;;;;;17.30;99.90;;;;;;5031156;28;20357;-73
2022/09/22 08:13:42;;;;;;;;;;;17.20;99.90;;;;;;5054643;28;19948;-73
2022/09/22 08:16:10;;;;;;;;;;;17.00;99.90;;;;;;5047740;28;19920;-73
2022/09/22 08:18:38;;;;;;;;;;;17.00;99.90;;;;;;5033429;28;20344;-74
2022/09/22 08:21:08;;;;;;;;;;;17.00;99.90;;;;;;5050802;28;20003;-73
2022/09/22 08:23:36;;;;;;;;;;;17.00;99.90;;;;;;5063605;28;20368;-73
2022/09/22 08:26:04;;;;;;;;;;;16.90;99.90;;;;;;5053008;28;20544;-72
2022/09/22 08:28:31;;;;;;;;;;;16.90;99.90;;;;;;5071303;28;19915;-76
2022/09/22 08:30:58;;;;;;;;;;;16.80;99.90;;;;;;5062468;28;20360;-76
2022/09/22 08:33:25;;;;;;;;;;;16.80;99.90;;;;;;5052408;28;19913;-75
2022/09/22 08:35:56;;;;;;;;;;;16.80;99.90;;;;;;5053030;28;19917;-76
2022/09/22 08:38:23;;;;;;;;;;;16.90;99.90;;;;;;5053358;28;19913;-75
2022/09/22 08:41:19;;;;;;;;;;;16.90;99.90;;;;;;5054452;28;19928;-74
2022/09/22 08:43:46;;;;;;;;;;;16.90;99.90;;;;;;4984502;28;20362;-75
2022/09/22 08:46:13;;;;;;;;;;;16.80;99.90;;;;;;5071942;28;20387;-76
2022/09/22 08:51:50;;;;;;;;;;;16.90;99.90;;;;;;5053296;28;19940;-74
2022/09/22 08:54:18;;;;;;;;;;;16.90;99.90;;;;;;5052931;28;19940;-73
2022/09/22 08:56:56;;;;;;;;;;;16.90;99.90;;;;;;5069200;28;20318;-73
2022/09/22 08:59:25;;;;;;;;;;;17.00;99.90;;;;;;5054373;28;19905;-73
2022/09/22 09:02:04;;;;;;;;;;;17.00;99.90;;;;;;5055998;28;19921;-73
2022/09/22 09:04:48;;;;;;;;;;;17.00;99.90;;;;;;5052718;28;20380;-74
2022/09/22 09:07:22;;;;;;;;;;;16.90;99.90;;;;;;5034736;28;19909;-73
2022/09/22 09:09:49;;;;;;;;;;;16.80;99.90;;;;;;5052796;28;19912;-72
2022/09/22 09:12:42;;;;;;;;;;;16.70;99.90;;;;;;5038731;28;20365;-74
2022/09/22 09:15:08;;;;;;;;;;;16.70;99.90;;;;;;5034425;28;19913;-74
2022/09/22 09:17:37;;;;;;;;;;;16.80;99.90;;;;;;5071893;28;19916;-75
2022/09/22 09:20:03;;;;;;;;;;;16.80;99.90;;;;;;5070447;28;19948;-75
2022/09/22 09:22:33;;;;;;;;;;;16.80;99.90;;;;;;5068381;28;19964;-75
2022/09/22 09:25:05;;;;;;;;;;;16.80;99.90;;;;;;5053889;28;20011;-74
2022/09/22 09:27:34;;;;;;;;;;;16.80;99.90;;;;;;5072030;28;20359;-74
2022/09/22 09:30:03;;;;;;;;;;;16.80;99.90;;;;;;5070015;28;19923;-74
2022/09/22 09:32:38;;;;;;;;;;;16.90;99.90;;;;;;5052118;28;20352;-74
2022/09/22 09:35:05;;;;;;;;;;;16.80;99.90;;;;;;5052919;28;20324;-73
2022/09/22 09:37:32;;;;;;;;;;;16.90;99.90;;;;;;5051940;28;19916;-74
2022/09/22 09:40:01;;;;;;;;;;;16.90;99.90;;;;;;5051544;28;20400;-74
2022/09/22 09:42:30;;;;;;;;;;;16.90;99.90;;;;;;5033915;28;19909;-75
2022/09/22 09:45:01;;;;;;;;;;;16.90;99.90;;;;;;5067263;28;20364;-75
2022/09/22 09:47:31;;;;;;;;;;;16.90;99.90;;;;;;5072077;28;19950;-74
2022/09/22 09:49:58;;;;;;;;;;;17.00;99.90;;;;;;5071368;28;19909;-76
2022/09/22 09:52:25;;;;;;;;;;;17.00;99.90;;;;;;5051556;28;19963;-74
2022/09/22 09:54:53;;;;;;;;;;;17.00;99.90;;;;;;5051692;28;19909;-73
2022/09/22 09:57:20;;;;;;;;;;;16.90;99.90;;;;;;5051550;28;19913;-75
2022/09/22 10:02:33;;;;;;;;;;;17.00;99.90;;;;;;5051056;28;19954;-75
2022/09/22 10:05:01;;;;;;;;;;;16.90;99.90;;;;;;5033407;28;19979;-75
2022/09/22 10:07:29;;;;;;;;;;;17.00;99.90;;;;;;5051450;28;19909;-75
2022/09/22 10:10:16;;;;;;;;;;;17.00;99.90;;;;;;5033376;28;19909;-74
2022/09/22 10:12:42;;;;;;;;;;;17.00;99.90;;;;;;5033879;28;20360;-74
2022/09/22 10:15:22;;;;;;;;;;;17.00;99.90;;;;;;5051611;28;20249;-74
2022/09/22 10:17:50;;;;;;;;;;;17.00;99.90;;;;;;5050632;28;20143;-75
2022/09/22 10:20:21;;;;;;;;;;;17.00;99.90;;;;;;5050588;28;19964;-74
2022/09/22 10:22:48;;;;;;;;;;;17.00;99.90;;;;;;5053367;28;19909;-74
2022/09/22 10:25:19;;;;;;;;;;;17.00;99.90;;;;;;5071114;28;20003;-75
2022/09/22 10:27:58;;;;;;;;;;;16.90;99.90;;;;;;5065628;28;20011;-76
2022/09/22 10:30:26;;;;;;;;;;;17.00;99.90;;;;;;5050840;28;19919;-74
2022/09/22 10:33:10;;;;;;;;;;;17.10;99.90;;;;;;5059015;28;19938;-74
2022/09/22 10:35:37;;;;;;;;;;;17.00;99.90;;;;;;5051327;28;19908;-75
2022/09/22 10:38:15;;;;;;;;;;;17.10;99.90;;;;;;5058266;28;19913;-78
2022/09/22 10:40:46;;;;;;;;;;;17.10;99.90;;;;;;5064404;28;20011;-76
2022/09/22 10:43:30;;;;;;;;;;;17.10;99.90;;;;;;5054504;28;19968;-76
2022/09/22 10:46:11;;;;;;;;;;;17.10;99.90;;;;;;5055239;28;19913;-75
2022/09/22 10:48:47;;;;;;;;;;;17.10;99.90;;;;;;5055111;28;19919;-72
2022/09/22 10:51:17;;;;;;;;;;;17.10;99.90;;;;;;5054712;28;19913;-72
2022/09/22 10:53:56;;;;;;;;;;;17.00;99.90;;;;;;5062087;28;19913;-70
2022/09/22 10:56:32;;;;;;;;;;;17.10;99.90;;;;;;5074506;28;19919;-71
2022/09/22 10:59:06;;;;;;;;;;;17.10;99.90;;;;;;5074240;28;19916;-72
2022/09/22 11:01:50;;;;;;;;;;;17.10;99.90;;;;;;5060730;28;19960;-72
2022/09/22 11:04:23;;;;;;;;;;;16.90;99.90;;;;;;5064275;28;19956;-72
2022/09/22 11:13:00;;;;;;;;;;;16.80;99.90;;;;;;5055119;28;20328;-73
2022/09/22 11:15:33;;;;;;;;;;;16.70;99.90;;;;;;5036888;28;19909;-73
2022/09/22 11:18:03;;;;;;;;;;;16.80;99.90;;;;;;5054419;28;19917;-72
2022/09/22 11:20:36;;;;;;;;;;;16.70;99.90;;;;;;5065881;28;20337;-72
2022/09/22 11:23:06;;;;;;;;;;;16.70;99.90;;;;;;5054308;28;19941;-72
2022/09/22 11:25:48;;;;;;;;;;;16.70;99.90;;;;;;5054635;28;19909;-70
2022/09/22 11:28:30;;;;;;;;;;;16.70;99.90;;;;;;5054253;28;19973;-71
2022/09/22 11:30:57;;;;;;;;;;;16.70;99.90;;;;;;5053985;28;20572;-72
2022/09/22 11:33:42;;;;;;;;;;;16.60;99.90;;;;;;5054002;28;19908;-71
2022/09/22 11:36:09;;;;;;;;;;;16.60;99.90;;;;;;5054446;28;19924;-73
2022/09/22 11:38:50;;;;;;;;;;;16.60;99.90;;;;;;5064466;28;19919;-70
2022/09/22 11:41:35;;;;;;;;;;;16.60;99.90;;;;;;5062735;28;19920;-69
2022/09/22 11:44:20;;;;;;;;;;;16.50;99.90;;;;;;5036033;28;20381;-68
2022/09/22 11:47:01;;;;;;;;;;;16.50;99.90;;;;;;5044481;28;19947;-71
2022/09/22 11:49:46;;;;;;;;;;;16.40;99.90;;;;;;5064299;28;19962;-71
2022/09/22 11:52:13;;;;;;;;;;;16.40;99.90;;;;;;5062462;28;19915;-71
2022/09/22 11:55:03;;;;;;;;;;;16.40;99.90;;;;;;5062844;28;19936;-70
2022/09/22 11:57:32;;;;;;;;;;;16.40;99.90;;;;;;5058632;28;19951;-72
2022/09/22 12:00:16;;;;;;;;;;;16.40;99.90;;;;;;5053017;28;19992;-71
2022/09/22 12:02:54;;;;;;;;;;;16.40;99.90;;;;;;5053780;28;19916;-72
2022/09/22 12:05:27;;;;;;;;;;;16.40;99.90;;;;;;5053609;28;19995;-71
2022/09/22 12:07:58;;;;;;;;;;;16.40;99.90;;;;;;5057708;28;19913;-71
2022/09/22 12:10:30;;;;;;;;;;;16.30;99.90;;;;;;5056613;28;20329;-72
2022/09/22 12:12:57;;;;;;;;;;;16.40;99.90;;;;;;5072527;28;19927;-71
2022/09/22 12:15:28;;;;;;;;;;;16.30;99.90;;;;;;5067564;28;19982;-71
2022/09/22 12:18:00;;;;;;;;;;;16.30;99.90;;;;;;5073068;28;20268;-69
2022/09/22 12:20:39;;;;;;;;;;;16.40;99.90;;;;;;5068702;28;19917;-72
2022/09/22 12:23:15;;;;;;;;;;;16.40;99.90;;;;;;5053406;28;19909;-71
2022/09/22 12:25:46;;;;;;;;;;;16.30;99.90;;;;;;5052933;28;19916;-71
2022/09/22 12:28:14;;;;;;;;;;;16.40;99.90;;;;;;5052992;28;19913;-71
2022/09/22 12:30:51;;;;;;;;;;;16.30;99.90;;;;;;5053053;28;19912;-68
2022/09/22 12:33:21;;;;;;;;;;;16.40;99.90;;;;;;5053548;28;19956;-70
2022/09/22 12:35:53;;;;;;;;;;;16.40;99.90;;;;;;5053269;28;19915;-71
2022/09/22 12:38:20;;;;;;;;;;;16.40;99.90;;;;;;5065226;28;19943;-71
2022/09/22 12:40:48;;;;;;;;;;;16.40;99.90;;;;;;5065516;28;19917;-72
2022/09/22 12:43:20;;;;;;;;;;;16.40;99.90;;;;;;5052999;28;19913;-71
2022/09/22 12:45:47;;;;;;;;;;;16.40;99.90;;;;;;5052827;28;19936;-71
2022/09/22 12:48:20;;;;;;;;;;;16.30;99.90;;;;;;5052872;28;20288;-71
2022/09/22 12:50:48;;;;;;;;;;;16.40;99.90;;;;;;5052980;28;19909;-71
2022/09/22 12:53:21;;;;;;;;;;;16.40;99.90;;;;;;5054382;28;19913;-72
2022/09/22 12:55:48;;;;;;;;;;;16.40;99.90;;;;;;5034499;28;20253;-71
2022/09/22 12:58:18;;;;;;;;;;;16.40;99.90;;;;;;5063226;28;19999;-70
2022/09/22 13:00:45;;;;;;;;;;;16.40;99.90;;;;;;5065429;28;20434;-69
2022/09/22 13:03:24;;;;;;;;;;;16.20;99.90;;;;;;5052567;28;19932;-70
2022/09/22 13:05:55;;;;;;;;;;;16.20;99.90;;;;;;5051471;28;20004;-71
2022/09/22 13:08:41;;;;;;;;;;;16.20;99.90;;;;;;5070253;28;19923;-68
2022/09/22 13:11:11;;;;;;;;;;;16.20;99.90;;;;;;5044313;28;19916;-69
2022/09/22 13:13:40;;;;;;;;;;;16.20;99.90;;;;;;5057683;28;20441;-70
2022/09/22 13:16:15;;;;;;;;;;;16.20;99.90;;;;;;5071995;28;19923;-70
2022/09/22 13:18:54;;;;;;;;;;;16.30;99.90;;;;;;5055269;28;20003;-71
2022/09/22 13:21:27;;;;;;;;;;;16.30;99.90;;;;;;5052069;28;20019;-71
2022/09/22 13:23:54;;;;;;;;;;;16.30;99.90;;;;;;5051820;28;19943;-71
2022/09/22 13:26:22;;;;;;;;;;;16.30;99.90;;;;;;5053627;28;20276;-69
2022/09/22 13:28:59;;;;;;;;;;;16.30;99.90;;;;;;5049426;28;19913;-71
2022/09/22 13:31:26;;;;;;;;;;;16.30;99.90;;;;;;5051401;28;19991;-70
2022/09/22 13:33:53;;;;;;;;;;;16.30;99.90;;;;;;5051760;28;19982;-71
2022/09/22 13:36:22;;;;;;;;;;;16.30;99.90;;;;;;5052156;28;19913;-72
2022/09/22 13:38:52;;;;;;;;;;;16.30;99.90;;;;;;5056724;28;20428;-72
2022/09/22 13:41:22;;;;;;;;;;;16.30;99.90;;;;;;5058781;28;19960;-72
2022/09/22 13:44:01;;;;;;;;;;;16.20;99.90;;;;;;5060292;28;20384;-72
2022/09/22 13:46:36;;;;;;;;;;;16.20;99.90;;;;;;5057612;28;19909;-71
2022/09/22 13:49:05;;;;;;;;;;;16.20;99.90;;;;;;5061573;28;19916;-70
2022/09/22 13:51:33;;;;;;;;;;;16.10;99.90;;;;;;5058460;28;19913;-70
2022/09/22 13:54:00;;;;;;;;;;;16.10;99.90;;;;;;5060789;28;19909;-71
2022/09/22 13:56:27;;;;;;;;;;;16.10;99.90;;;;;;5059393;28;19912;-70
2022/09/22 13:58:55;;;;;;;;;;;16.10;99.90;;;;;;5065208;28;20022;-71
2022/09/22 14:01:23;;;;;;;;;;;16.10;99.90;;;;;;5069219;28;19916;-72
2022/09/22 14:03:54;;;;;;;;;;;16.10;99.90;;;;;;5070012;28;19920;-72
2022/09/22 14:06:23;;;;;;;;;;;16.20;99.90;;;;;;5058188;28;19919;-71
2022/09/22 14:08:51;;;;;;;;;;;16.10;99.90;;;;;;5049830;28;20003;-71
2022/09/22 14:11:24;;;;;;;;;;;16.10;99.90;;;;;;5049925;28;20572;-71
2022/09/22 14:13:54;;;;;;;;;;;16.10;99.90;;;;;;5051737;28;19920;-71
2022/09/22 14:16:46;;;;;;;;;;;16.10;99.90;;;;;;5052241;28;19991;-71
2022/09/22 14:19:25;;;;;;;;;;;16.00;99.90;;;;;;5055747;28;20017;-70
2022/09/22 14:21:54;;;;;;;;;;;16.00;99.90;;;;;;5055126;28;20007;-70
2022/09/22 14:24:21;;;;;;;;;;;16.00;99.90;;;;;;5055920;28;19908;-70
2022/09/22 14:27:08;;;;;;;;;;;16.00;99.90;;;;;;5055846;28;19909;-71
2022/09/22 14:29:38;;;;;;;;;;;16.00;99.90;;;;;;5057998;28;20304;-72
2022/09/22 14:32:17;;;;;;;;;;;16.00;99.90;;;;;;5075815;28;19938;-73
2022/09/22 14:34:48;;;;;;;;;;;16.00;99.90;;;;;;5075303;28;20016;-73
2022/09/22 14:37:20;;;;;;;;;;;16.00;99.90;;;;;;5075594;28;19912;-72
2022/09/22 14:39:49;;;;;;;;;;;16.10;99.90;;;;;;5075225;28;19919;-72
2022/09/22 14:42:18;;;;;;;;;;;16.00;99.90;;;;;;5075473;28;19912;-72
2022/09/22 14:44:49;;;;;;;;;;;16.10;99.90;;;;;;5075616;28;19912;-72
2022/09/22 14:47:29;;;;;;;;;;;16.10;99.90;;;;;;5075376;28;19943;-73